Phuket, Thailand

3:37 AM ICT on July 29, 2014 (GMT +0700)
Phuket International (VTSP) Elev 30 ft | 8.11 °N, 98.32 °E | Change Station

Current weather conditions updated 7 minutes ago

Mostly Cloudy
Mostly Cloudy
81 °F
Feels Like 86 °F
N
7
Wind Variable Wind from WSW

Today is forecast to be Cooler than yesterday. Showers and thunderstorms.

Today
High -- | Low -- °F
--% Chance of Precip.
Yesterday
High -- | Low -- °F
Precip. -- in
6:18 AM 6:47 PM
Waxing Crescent, 3% visible
Pressure 29.80 in
Visibility 5.0 miles
Clouds Few 1800 ft
Mostly Cloudy 30000 ft
Heat Index 86 °F
Dew Point 75 °F
Humidity 84%
Rainfall 0.00 in
Snow Depth Not available.
UV 0 out of 12
Pollen Not available.
Air Quality Not available.
Flu Activity Not available.
METAR VTSP 282030Z 24006KT 160V310 8000 FEW018 BKN300 27/24 Q1009 A2981 NOSIG

More Conditions Fewer Conditions

Pressure 29.80 in
Visibility 5.0 miles
Clouds Few 1800 ft
Mostly Cloudy 30000 ft
Heat Index 86 °F
Dew Point 75 °F
Humidity 84%
Rainfall 0.00 in
Snow Depth Not available.
UV 0 out of 12
Pollen Not available.
Air Quality Not available.
Flu Activity Not available.
METAR VTSP 282030Z 24006KT 160V310 8000 FEW018 BKN300 27/24 Q1009 A2981 NOSIG

More Conditions Fewer Conditions

10-Day Weather Forecast

Almanac

Astronomy

Jul. 29, 2014 Rise Set
Actual Time 6:18 AM ICT 6:47 PM ICT
Civil Twilight 5:56 AM ICT 7:09 PM ICT
Nautical Twilight 5:30 AM ICT 7:35 PM ICT
Astronomical Twilight 5:04 AM ICT 8:01 PM ICT
Moon 7:53 AM ICT (7/29) 8:22 PM ICT (7/29)
Length of Visible Light 13h 13m
Length of Day
12h 29m
Tomorrow will be 0m 18s shorter.
Waxing Crescent, 3% of the Moon is Illuminated
Jul 28
Waxing Crescent
Aug 3
First Quarter
Aug 10
Full
Aug 17
Last Quarter
Aug 25
New

Yesterday's Extremes

Country Highs Country Lows

Community

WunderPhotos

Upload Photos

1,738,489 photos uploaded!

Nearby

Snow Depth

Not available.

Earthquake Activity

City Distance Mag. Time & Date
No recent earthquake activity has been reported nearby.
Minimum magnitude displayed is 2.5.

Coastal Water Temperatures

Place Temperature
No Stations Reporting

Nearby Weather Stations

Station Location Temp. Heat Index Dew Point Humidity Wind Precip. Elev Updated Type
Cherngtalay, Thalang, Phuket 79.4 °F 84 °F 78 °F 94% WSW  at  3.0 mph 0.00 in / hr 39 ft 3:27 AM ICT Normal
Ao Chalong Yacht Club, Wichit 82.6 °F 92 °F 79 °F 85% West  at  4.5 mph 0.00 in / hr 20 ft 3:35 AM ICT Normal
Mig`s house, Phuket 82.4 °F 89 °F 76 °F 77% West  at  10.7 mph 0.00 in / hr 35 ft 3:35 AM ICT Normal
Promthep Cape, Phuket, Rawai 81.0 °F 88 °F 77 °F 88% NW  at  2.0 mph 0.00 in / hr 190 ft 3:37 AM ICT Rapid Fire

Show More Stations Show Fewer Stations